Pagrindinis puslapis
METAR-TAF:

METAR-TAF

Oro uostai :

Bazelis-Miulūzas-Freiburgas, Prancūzija

platuma: 47-36N, ilguma: 007-31E, Aukštis: 270 m

Dabartinis oras

Ataskaita buvo paskelbta 21 minutes, ne 11:30 UTC
Vėjas 3 kt nuo kintamojo kryptimis
Temperatūra 22°C
Drėgmė 46%
Slėgis 1018 hPa
Matomumas 10 km arba daugiau
Mažai debesys ne aukštis 5000 ft

METAR: LFSB 211130Z VRB03KT 9999 FEW050 22/10 Q1018 NOSIG

Laikas: 13:51 (11:51 UTC)

Prognozė

Ataskaita buvo paskelbta 51 minutes, ne 11:00 UTC
Prognozė galioja nuo 21 metu 12 UTC su 22 metu 12 UTC
Vėjas 6 kt iš Šiaurės
Matomumas 10 km arba daugiau
nėra debesų žemiau 1500 m ir nėra kamuolinių lietaus debesų

TAF: LFSB 211100Z 2112/2212 01006KT CAVOK

Orai ataskaitas ir orų prognozės (METAR, TAF).

turimą stotys yra geltonos ir raudonos taškus žemėlapyje.

Perkelti pele per norėdami pamatyti stoties vardą.

Tada spustelėkite, norėdami matyti oro stebėjimo ir prognozės.

Norėdami pakeisti žemėlapį: spustelėkite ant žalios mygtukų su juodo kryžiaus žemyn,; žalią mygtuką su brūkšneliu, jei norite nutolinti; arba žalių rodyklių gretimoms žemėlapius.


METAR-TAF: